sensor_id;sensor_type;location;lat;lon;timestamp;temperature;humidity
28438;DHT22;15667;52.376;9.708;2023-02-15T00:00:17;4.50;99.90
28438;DHT22;15667;52.376;9.708;2023-02-15T00:02:43;4.50;99.90
28438;DHT22;15667;52.376;9.708;2023-02-15T00:05:09;4.50;99.90
28438;DHT22;15667;52.376;9.708;2023-02-15T00:07:34;4.70;99.90
28438;DHT22;15667;52.376;9.708;2023-02-15T00:10:00;4.60;99.90
28438;DHT22;15667;52.376;9.708;2023-02-15T00:12:25;5.20;99.90
28438;DHT22;15667;52.376;9.708;2023-02-15T00:14:51;4.80;99.90
28438;DHT22;15667;52.376;9.708;2023-02-15T00:17:17;4.80;99.90
28438;DHT22;15667;52.376;9.708;2023-02-15T00:19:42;4.80;99.90
28438;DHT22;15667;52.376;9.708;2023-02-15T00:22:08;4.70;99.90
28438;DHT22;15667;52.376;9.708;2023-02-15T00:24:34;5.60;99.90
28438;DHT22;15667;52.376;9.708;2023-02-15T00:26:59;4.50;99.90
28438;DHT22;15667;52.376;9.708;2023-02-15T00:29:25;4.00;99.90
28438;DHT22;15667;52.376;9.708;2023-02-15T00:31:51;4.50;99.90
28438;DHT22;15667;52.376;9.708;2023-02-15T00:36:45;4.50;99.90
28438;DHT22;15667;52.376;9.708;2023-02-15T00:39:11;4.50;99.90
28438;DHT22;15667;52.376;9.708;2023-02-15T00:41:37;4.50;99.90
28438;DHT22;15667;52.376;9.708;2023-02-15T00:44:03;4.50;99.90
28438;DHT22;15667;52.376;9.708;2023-02-15T00:46:29;4.50;99.90
28438;DHT22;15667;52.376;9.708;2023-02-15T00:48:55;4.50;99.90
28438;DHT22;15667;52.376;9.708;2023-02-15T00:51:21;4.50;99.90
28438;DHT22;15667;52.376;9.708;2023-02-15T00:53:47;4.60;99.90
28438;DHT22;15667;52.376;9.708;2023-02-15T00:56:13;4.50;99.90
28438;DHT22;15667;52.376;9.708;2023-02-15T00:58:38;4.50;99.90
28438;DHT22;15667;52.376;9.708;2023-02-15T01:01:06;4.50;99.90
28438;DHT22;15667;52.376;9.708;2023-02-15T01:03:33;4.60;99.90
28438;DHT22;15667;52.376;9.708;2023-02-15T01:05:59;4.50;99.90
28438;DHT22;15667;52.376;9.708;2023-02-15T01:08:25;4.50;99.90
28438;DHT22;15667;52.376;9.708;2023-02-15T01:10:51;4.50;99.90
28438;DHT22;15667;52.376;9.708;2023-02-15T01:13:17;5.60;99.90
28438;DHT22;15667;52.376;9.708;2023-02-15T01:15:43;4.50;99.90
28438;DHT22;15667;52.376;9.708;2023-02-15T01:18:10;5.20;99.90
28438;DHT22;15667;52.376;9.708;2023-02-15T01:20:38;4.60;99.90
28438;DHT22;15667;52.376;9.708;2023-02-15T01:23:05;5.80;99.90
28438;DHT22;15667;52.376;9.708;2023-02-15T01:25:34;4.50;99.90
28438;DHT22;15667;52.376;9.708;2023-02-15T01:28:00;4.90;99.90
28438;DHT22;15667;52.376;9.708;2023-02-15T01:30:26;4.50;99.90
28438;DHT22;15667;52.376;9.708;2023-02-15T01:32:52;4.50;99.90
28438;DHT22;15667;52.376;9.708;2023-02-15T01:35:18;5.40;99.90
28438;DHT22;15667;52.376;9.708;2023-02-15T01:37:43;5.70;99.90
28438;DHT22;15667;52.376;9.708;2023-02-15T01:40:14;5.70;99.90
28438;DHT22;15667;52.376;9.708;2023-02-15T01:42:40;4.40;99.90
28438;DHT22;15667;52.376;9.708;2023-02-15T01:45:19;4.40;99.90
28438;DHT22;15667;52.376;9.708;2023-02-15T01:47:54;4.40;99.90
28438;DHT22;15667;52.376;9.708;2023-02-15T01:50:29;4.40;99.90
28438;DHT22;15667;52.376;9.708;2023-02-15T01:53:29;4.70;99.90
28438;DHT22;15667;52.376;9.708;2023-02-15T01:55:53;4.30;99.90
28438;DHT22;15667;52.376;9.708;2023-02-15T01:58:20;4.30;99.90
28438;DHT22;15667;52.376;9.708;2023-02-15T02:00:46;4.30;99.90
28438;DHT22;15667;52.376;9.708;2023-02-15T02:03:12;4.30;99.90
28438;DHT22;15667;52.376;9.708;2023-02-15T02:05:39;4.20;99.90
28438;DHT22;15667;52.376;9.708;2023-02-15T02:08:06;4.30;99.90
28438;DHT22;15667;52.376;9.708;2023-02-15T02:10:32;4.30;99.90
28438;DHT22;15667;52.376;9.708;2023-02-15T02:13:00;4.30;99.90
28438;DHT22;15667;52.376;9.708;2023-02-15T02:18:28;4.20;99.90
28438;DHT22;15667;52.376;9.708;2023-02-15T02:21:21;4.30;99.90
28438;DHT22;15667;52.376;9.708;2023-02-15T02:24:19;4.10;99.90
28438;DHT22;15667;52.376;9.708;2023-02-15T02:27:15;4.10;99.90
28438;DHT22;15667;52.376;9.708;2023-02-15T02:38:42;4.10;99.90
28438;DHT22;15667;52.376;9.708;2023-02-15T02:43:52;4.50;99.90
28438;DHT22;15667;52.376;9.708;2023-02-15T02:46:32;4.40;99.90
28438;DHT22;15667;52.376;9.708;2023-02-15T02:49:01;5.00;99.90
28438;DHT22;15667;52.376;9.708;2023-02-15T02:51:26;4.00;99.90
28438;DHT22;15667;52.376;9.708;2023-02-15T02:53:55;3.80;99.90
28438;DHT22;15667;52.376;9.708;2023-02-15T02:56:48;3.90;99.90
28438;DHT22;15667;52.376;9.708;2023-02-15T02:59:25;4.00;99.90
28438;DHT22;15667;52.376;9.708;2023-02-15T03:01:55;4.10;99.90
28438;DHT22;15667;52.376;9.708;2023-02-15T03:04:28;3.90;99.90
28438;DHT22;15667;52.376;9.708;2023-02-15T03:07:12;3.80;99.90
28438;DHT22;15667;52.376;9.708;2023-02-15T03:09:43;4.80;99.90
28438;DHT22;15667;52.376;9.708;2023-02-15T03:12:17;3.90;99.90
28438;DHT22;15667;52.376;9.708;2023-02-15T03:14:47;3.80;99.90
28438;DHT22;15667;52.376;9.708;2023-02-15T03:17:14;3.80;99.90
28438;DHT22;15667;52.376;9.708;2023-02-15T03:19:43;3.80;99.90
28438;DHT22;15667;52.376;9.708;2023-02-15T03:22:18;3.70;99.90
28438;DHT22;15667;52.376;9.708;2023-02-15T03:25:04;3.70;99.90
28438;DHT22;15667;52.376;9.708;2023-02-15T03:27:36;3.70;99.90
28438;DHT22;15667;52.376;9.708;2023-02-15T03:30:04;3.70;99.90
28438;DHT22;15667;52.376;9.708;2023-02-15T03:32:32;3.70;99.90
28438;DHT22;15667;52.376;9.708;2023-02-15T03:34:58;4.70;99.90
28438;DHT22;15667;52.376;9.708;2023-02-15T03:37:45;3.70;99.90
28438;DHT22;15667;52.376;9.708;2023-02-15T03:40:31;3.60;99.90
28438;DHT22;15667;52.376;9.708;2023-02-15T03:43:45;3.60;99.90
28438;DHT22;15667;52.376;9.708;2023-02-15T03:46:24;3.60;99.90
28438;DHT22;15667;52.376;9.708;2023-02-15T03:49:05;3.60;99.90
28438;DHT22;15667;52.376;9.708;2023-02-15T03:51:36;3.60;99.90
28438;DHT22;15667;52.376;9.708;2023-02-15T03:56:39;3.60;99.90
28438;DHT22;15667;52.376;9.708;2023-02-15T03:59:06;3.50;99.90
28438;DHT22;15667;52.376;9.708;2023-02-15T04:02:14;3.50;99.90
28438;DHT22;15667;52.376;9.708;2023-02-15T04:04:46;3.50;99.90
28438;DHT22;15667;52.376;9.708;2023-02-15T04:07:12;3.60;99.90
28438;DHT22;15667;52.376;9.708;2023-02-15T04:09:38;4.30;99.90
28438;DHT22;15667;52.376;9.708;2023-02-15T04:12:22;3.50;99.90
28438;DHT22;15667;52.376;9.708;2023-02-15T04:14:48;3.40;99.90
28438;DHT22;15667;52.376;9.708;2023-02-15T04:17:32;3.50;99.90
28438;DHT22;15667;52.376;9.708;2023-02-15T04:19:57;3.50;99.90
28438;DHT22;15667;52.376;9.708;2023-02-15T04:22:43;3.40;99.90
28438;DHT22;15667;52.376;9.708;2023-02-15T04:25:27;3.40;99.90
28438;DHT22;15667;52.376;9.708;2023-02-15T04:27:54;3.30;99.90
28438;DHT22;15667;52.376;9.708;2023-02-15T04:30:22;2.90;99.90
28438;DHT22;15667;52.376;9.708;2023-02-15T04:32:48;3.30;99.90
28438;DHT22;15667;52.376;9.708;2023-02-15T04:35:14;2.40;99.90
28438;DHT22;15667;52.376;9.708;2023-02-15T04:37:40;3.30;99.90
28438;DHT22;15667;52.376;9.708;2023-02-15T04:40:08;3.20;99.90
28438;DHT22;15667;52.376;9.708;2023-02-15T04:42:34;3.20;99.90
28438;DHT22;15667;52.376;9.708;2023-02-15T04:44:59;3.20;99.90
28438;DHT22;15667;52.376;9.708;2023-02-15T04:47:25;3.10;99.90
28438;DHT22;15667;52.376;9.708;2023-02-15T04:49:51;3.20;99.90
28438;DHT22;15667;52.376;9.708;2023-02-15T04:52:16;3.10;99.90
28438;DHT22;15667;52.376;9.708;2023-02-15T04:54:43;3.90;99.90
28438;DHT22;15667;52.376;9.708;2023-02-15T04:57:09;4.30;99.90
28438;DHT22;15667;52.376;9.708;2023-02-15T04:59:35;4.10;99.90
28438;DHT22;15667;52.376;9.708;2023-02-15T05:02:01;4.10;99.90
28438;DHT22;15667;52.376;9.708;2023-02-15T05:04:26;4.00;99.90
28438;DHT22;15667;52.376;9.708;2023-02-15T05:06:52;2.90;99.90
28438;DHT22;15667;52.376;9.708;2023-02-15T05:09:18;2.90;99.90
28438;DHT22;15667;52.376;9.708;2023-02-15T05:11:43;2.90;99.90
28438;DHT22;15667;52.376;9.708;2023-02-15T05:14:09;2.90;99.90
28438;DHT22;15667;52.376;9.708;2023-02-15T05:16:35;3.90;99.90
28438;DHT22;15667;52.376;9.708;2023-02-15T05:19:00;2.90;99.90
28438;DHT22;15667;52.376;9.708;2023-02-15T05:21:26;4.20;99.90
28438;DHT22;15667;52.376;9.708;2023-02-15T05:23:52;4.00;99.90
28438;DHT22;15667;52.376;9.708;2023-02-15T05:26:19;2.90;99.90
28438;DHT22;15667;52.376;9.708;2023-02-15T05:29:05;3.00;99.90
28438;DHT22;15667;52.376;9.708;2023-02-15T05:31:31;2.90;99.90
28438;DHT22;15667;52.376;9.708;2023-02-15T05:33:57;3.00;99.90
28438;DHT22;15667;52.376;9.708;2023-02-15T05:36:23;2.90;99.90
28438;DHT22;15667;52.376;9.708;2023-02-15T05:38:49;2.90;99.90
28438;DHT22;15667;52.376;9.708;2023-02-15T05:41:15;2.80;99.90
28438;DHT22;15667;52.376;9.708;2023-02-15T05:43:41;2.80;99.90
28438;DHT22;15667;52.376;9.708;2023-02-15T05:46:07;2.80;99.90
28438;DHT22;15667;52.376;9.708;2023-02-15T05:48:33;4.10;99.90
28438;DHT22;15667;52.376;9.708;2023-02-15T05:53:32;2.80;99.90
28438;DHT22;15667;52.376;9.708;2023-02-15T05:55:58;2.80;99.90
28438;DHT22;15667;52.376;9.708;2023-02-15T05:58:28;3.20;99.90
28438;DHT22;15667;52.376;9.708;2023-02-15T06:00:53;2.90;99.90
28438;DHT22;15667;52.376;9.708;2023-02-15T06:03:19;2.90;99.90
28438;DHT22;15667;52.376;9.708;2023-02-15T06:05:45;3.50;99.90
28438;DHT22;15667;52.376;9.708;2023-02-15T06:08:10;2.90;99.90
28438;DHT22;15667;52.376;9.708;2023-02-15T06:10:36;4.30;99.90
28438;DHT22;15667;52.376;9.708;2023-02-15T06:13:01;2.70;99.90
28438;DHT22;15667;52.376;9.708;2023-02-15T06:15:27;4.10;99.90
28438;DHT22;15667;52.376;9.708;2023-02-15T06:17:52;3.10;99.90
28438;DHT22;15667;52.376;9.708;2023-02-15T06:20:18;3.10;99.90
28438;DHT22;15667;52.376;9.708;2023-02-15T06:22:44;3.00;99.90
28438;DHT22;15667;52.376;9.708;2023-02-15T06:25:09;2.90;99.90
28438;DHT22;15667;52.376;9.708;2023-02-15T06:27:36;3.60;99.90
28438;DHT22;15667;52.376;9.708;2023-02-15T06:30:04;3.10;99.90
28438;DHT22;15667;52.376;9.708;2023-02-15T06:32:31;2.90;99.90
28438;DHT22;15667;52.376;9.708;2023-02-15T06:34:56;2.80;99.90
28438;DHT22;15667;52.376;9.708;2023-02-15T06:37:22;3.60;99.90
28438;DHT22;15667;52.376;9.708;2023-02-15T06:39:48;2.60;99.90
28438;DHT22;15667;52.376;9.708;2023-02-15T06:42:13;2.60;99.90
28438;DHT22;15667;52.376;9.708;2023-02-15T06:44:39;2.80;99.90
28438;DHT22;15667;52.376;9.708;2023-02-15T06:47:04;2.50;99.90
28438;DHT22;15667;52.376;9.708;2023-02-15T06:49:30;3.40;99.90
28438;DHT22;15667;52.376;9.708;2023-02-15T06:51:56;3.50;99.90
28438;DHT22;15667;52.376;9.708;2023-02-15T06:54:21;2.50;99.90
28438;DHT22;15667;52.376;9.708;2023-02-15T06:56:47;2.40;99.90
28438;DHT22;15667;52.376;9.708;2023-02-15T06:59:12;3.80;99.90
28438;DHT22;15667;52.376;9.708;2023-02-15T07:01:38;2.40;99.90
28438;DHT22;15667;52.376;9.708;2023-02-15T07:04:04;2.50;99.90
28438;DHT22;15667;52.376;9.708;2023-02-15T07:06:33;2.40;99.90
28438;DHT22;15667;52.376;9.708;2023-02-15T07:08:59;2.40;99.90
28438;DHT22;15667;52.376;9.708;2023-02-15T07:11:25;1.80;99.90
28438;DHT22;15667;52.376;9.708;2023-02-15T07:14:09;3.00;99.90
28438;DHT22;15667;52.376;9.708;2023-02-15T07:17:13;2.40;99.90
28438;DHT22;15667;52.376;9.708;2023-02-15T07:20:42;2.40;99.90
28438;DHT22;15667;52.376;9.708;2023-02-15T07:23:40;2.40;99.90
28438;DHT22;15667;52.376;9.708;2023-02-15T07:26:31;2.50;99.90
28438;DHT22;15667;52.376;9.708;2023-02-15T07:29:16;2.50;99.90
28438;DHT22;15667;52.376;9.708;2023-02-15T07:31:55;2.50;99.90
28438;DHT22;15667;52.376;9.708;2023-02-15T07:44:31;2.60;99.90
28438;DHT22;15667;52.376;9.708;2023-02-15T07:48:03;2.70;99.90
28438;DHT22;15667;52.376;9.708;2023-02-15T07:51:30;2.70;99.90
28438;DHT22;15667;52.376;9.708;2023-02-15T07:55:02;2.70;99.90
28438;DHT22;15667;52.376;9.708;2023-02-15T07:58:15;2.80;99.90
28438;DHT22;15667;52.376;9.708;2023-02-15T08:05:34;2.80;99.90
28438;DHT22;15667;52.376;9.708;2023-02-15T08:11:55;2.80;99.90
28438;DHT22;15667;52.376;9.708;2023-02-15T08:14:21;4.10;99.90
28438;DHT22;15667;52.376;9.708;2023-02-15T08:16:52;3.70;99.90
28438;DHT22;15667;52.376;9.708;2023-02-15T08:21:46;4.40;99.90
28438;DHT22;15667;52.376;9.708;2023-02-15T08:24:13;3.40;99.90
28438;DHT22;15667;52.376;9.708;2023-02-15T08:26:39;3.70;99.90
28438;DHT22;15667;52.376;9.708;2023-02-15T08:29:06;4.00;99.90
28438;DHT22;15667;52.376;9.708;2023-02-15T08:31:33;4.10;99.90
28438;DHT22;15667;52.376;9.708;2023-02-15T08:33:58;4.40;99.90
28438;DHT22;15667;52.376;9.708;2023-02-15T08:36:27;4.40;99.90
28438;DHT22;15667;52.376;9.708;2023-02-15T08:38:54;4.50;99.90
28438;DHT22;15667;52.376;9.708;2023-02-15T08:41:22;4.70;99.90
28438;DHT22;15667;52.376;9.708;2023-02-15T08:44:02;4.50;99.90
28438;DHT22;15667;52.376;9.708;2023-02-15T08:46:47;4.30;99.90
28438;DHT22;15667;52.376;9.708;2023-02-15T08:49:16;4.10;99.90
28438;DHT22;15667;52.376;9.708;2023-02-15T08:51:42;4.10;99.90
28438;DHT22;15667;52.376;9.708;2023-02-15T08:54:11;5.70;99.90
28438;DHT22;15667;52.376;9.708;2023-02-15T08:56:40;4.50;99.90
28438;DHT22;15667;52.376;9.708;2023-02-15T08:59:07;4.40;99.90
28438;DHT22;15667;52.376;9.708;2023-02-15T09:01:36;6.30;99.90
28438;DHT22;15667;52.376;9.708;2023-02-15T09:04:05;5.50;99.90
28438;DHT22;15667;52.376;9.708;2023-02-15T09:06:32;5.50;99.90
28438;DHT22;15667;52.376;9.708;2023-02-15T09:08:57;6.90;99.90
28438;DHT22;15667;52.376;9.708;2023-02-15T09:11:26;7.70;99.90
28438;DHT22;15667;52.376;9.708;2023-02-15T09:14:05;6.80;99.90
28438;DHT22;15667;52.376;9.708;2023-02-15T09:16:32;6.80;99.90
28438;DHT22;15667;52.376;9.708;2023-02-15T09:18:58;6.90;99.90
28438;DHT22;15667;52.376;9.708;2023-02-15T09:21:27;6.80;99.90
28438;DHT22;15667;52.376;9.708;2023-02-15T09:23:59;6.90;99.90
28438;DHT22;15667;52.376;9.708;2023-02-15T09:26:27;6.70;99.90
28438;DHT22;15667;52.376;9.708;2023-02-15T09:28:55;6.90;99.90
28438;DHT22;15667;52.376;9.708;2023-02-15T09:31:23;8.30;99.90
28438;DHT22;15667;52.376;9.708;2023-02-15T09:33:50;8.40;99.90
28438;DHT22;15667;52.376;9.708;2023-02-15T09:36:18;8.70;99.90
28438;DHT22;15667;52.376;9.708;2023-02-15T09:38:46;8.50;99.90
28438;DHT22;15667;52.376;9.708;2023-02-15T09:41:17;7.40;99.90
28438;DHT22;15667;52.376;9.708;2023-02-15T09:53:50;8.00;99.90
28438;DHT22;15667;52.376;9.708;2023-02-15T09:56:42;7.90;99.90
28438;DHT22;15667;52.376;9.708;2023-02-15T10:26:48;6.80;99.90
28438;DHT22;15667;52.376;9.708;2023-02-15T10:29:38;6.60;99.90
28438;DHT22;15667;52.376;9.708;2023-02-15T10:32:27;6.30;99.90
28438;DHT22;15667;52.376;9.708;2023-02-15T10:48:16;6.90;99.90
28438;DHT22;15667;52.376;9.708;2023-02-15T10:51:11;6.70;99.90
28438;DHT22;15667;52.376;9.708;2023-02-15T10:54:44;6.70;99.90
28438;DHT22;15667;52.376;9.708;2023-02-15T11:00:32;6.80;99.90
28438;DHT22;15667;52.376;9.708;2023-02-15T11:03:31;8.00;99.90
28438;DHT22;15667;52.376;9.708;2023-02-15T11:06:12;6.90;99.90
28438;DHT22;15667;52.376;9.708;2023-02-15T11:09:04;7.00;99.90
28438;DHT22;15667;52.376;9.708;2023-02-15T11:12:12;7.00;99.90
28438;DHT22;15667;52.376;9.708;2023-02-15T11:15:20;7.00;99.90
28438;DHT22;15667;52.376;9.708;2023-02-15T11:25:30;7.20;99.90
28438;DHT22;15667;52.376;9.708;2023-02-15T11:28:18;7.40;99.90
28438;DHT22;15667;52.376;9.708;2023-02-15T11:41:34;7.70;99.90
28438;DHT22;15667;52.376;9.708;2023-02-15T11:51:35;8.10;99.90
28438;DHT22;15667;52.376;9.708;2023-02-15T11:54:56;8.20;99.90
28438;DHT22;15667;52.376;9.708;2023-02-15T12:03:54;8.80;99.90
28438;DHT22;15667;52.376;9.708;2023-02-15T12:24:43;8.90;99.90
28438;DHT22;15667;52.376;9.708;2023-02-15T12:31:44;8.80;99.90
28438;DHT22;15667;52.376;9.708;2023-02-15T12:38:36;9.00;99.90
28438;DHT22;15667;52.376;9.708;2023-02-15T12:45:46;8.80;99.90
28438;DHT22;15667;52.376;9.708;2023-02-15T12:49:06;8.90;99.90
28438;DHT22;15667;52.376;9.708;2023-02-15T12:52:25;9.00;99.90
28438;DHT22;15667;52.376;9.708;2023-02-15T12:55:10;9.10;99.90
28438;DHT22;15667;52.376;9.708;2023-02-15T12:57:36;9.30;99.90
28438;DHT22;15667;52.376;9.708;2023-02-15T13:02:46;9.40;99.90
28438;DHT22;15667;52.376;9.708;2023-02-15T13:05:38;9.50;99.90
28438;DHT22;15667;52.376;9.708;2023-02-15T13:08:14;9.40;99.90
28438;DHT22;15667;52.376;9.708;2023-02-15T13:11:08;9.40;99.90
28438;DHT22;15667;52.376;9.708;2023-02-15T13:14:02;9.40;99.90
28438;DHT22;15667;52.376;9.708;2023-02-15T13:16:30;9.40;99.90
28438;DHT22;15667;52.376;9.708;2023-02-15T13:18:57;9.50;99.90
28438;DHT22;15667;52.376;9.708;2023-02-15T13:21:26;9.60;99.90
28438;DHT22;15667;52.376;9.708;2023-02-15T13:24:05;9.50;99.90
28438;DHT22;15667;52.376;9.708;2023-02-15T13:26:32;9.60;99.90
28438;DHT22;15667;52.376;9.708;2023-02-15T13:29:10;10.10;99.90
28438;DHT22;15667;52.376;9.708;2023-02-15T13:31:38;9.70;99.90
28438;DHT22;15667;52.376;9.708;2023-02-15T13:34:18;9.80;99.90
28438;DHT22;15667;52.376;9.708;2023-02-15T13:42:20;9.90;99.90
28438;DHT22;15667;52.376;9.708;2023-02-15T13:44:54;10.00;99.90
28438;DHT22;15667;52.376;9.708;2023-02-15T14:01:11;13.60;99.90
28438;DHT22;15667;52.376;9.708;2023-02-15T14:26:14;12.50;99.90
28438;DHT22;15667;52.376;9.708;2023-02-15T14:31:41;11.80;99.90
28438;DHT22;15667;52.376;9.708;2023-02-15T14:34:22;11.60;99.90
28438;DHT22;15667;52.376;9.708;2023-02-15T14:36:50;11.40;99.90
28438;DHT22;15667;52.376;9.708;2023-02-15T14:39:29;11.30;99.90
28438;DHT22;15667;52.376;9.708;2023-02-15T14:42:44;11.20;99.90
28438;DHT22;15667;52.376;9.708;2023-02-15T14:45:19;11.10;99.90
28438;DHT22;15667;52.376;9.708;2023-02-15T14:47:56;11.20;99.90
28438;DHT22;15667;52.376;9.708;2023-02-15T14:50:40;10.90;99.90
28438;DHT22;15667;52.376;9.708;2023-02-15T14:58:38;10.40;99.90
28438;DHT22;15667;52.376;9.708;2023-02-15T15:01:34;10.40;99.90
28438;DHT22;15667;52.376;9.708;2023-02-15T15:04:06;10.00;99.90
28438;DHT22;15667;52.376;9.708;2023-02-15T15:06:38;9.80;99.90
28438;DHT22;15667;52.376;9.708;2023-02-15T15:09:20;10.90;99.90
28438;DHT22;15667;52.376;9.708;2023-02-15T15:11:49;9.70;99.90
28438;DHT22;15667;52.376;9.708;2023-02-15T15:17:00;9.80;99.90
28438;DHT22;15667;52.376;9.708;2023-02-15T15:22:32;9.60;99.90
28438;DHT22;15667;52.376;9.708;2023-02-15T15:27:43;9.40;99.90
28438;DHT22;15667;52.376;9.708;2023-02-15T15:49:15;8.90;99.90
28438;DHT22;15667;52.376;9.708;2023-02-15T15:51:42;8.80;99.90
28438;DHT22;15667;52.376;9.708;2023-02-15T15:54:18;8.80;99.90
28438;DHT22;15667;52.376;9.708;2023-02-15T15:56:55;8.70;99.90
28438;DHT22;15667;52.376;9.708;2023-02-15T15:59:29;8.60;99.90
28438;DHT22;15667;52.376;9.708;2023-02-15T16:01:55;8.60;99.90
28438;DHT22;15667;52.376;9.708;2023-02-15T16:04:32;8.50;99.90
28438;DHT22;15667;52.376;9.708;2023-02-15T16:09:55;8.50;99.90
28438;DHT22;15667;52.376;9.708;2023-02-15T16:12:21;8.40;99.90
28438;DHT22;15667;52.376;9.708;2023-02-15T16:14:57;8.30;99.90
28438;DHT22;15667;52.376;9.708;2023-02-15T16:17:30;8.20;99.90
28438;DHT22;15667;52.376;9.708;2023-02-15T16:22:40;8.00;99.90
28438;DHT22;15667;52.376;9.708;2023-02-15T16:25:24;7.90;99.90
28438;DHT22;15667;52.376;9.708;2023-02-15T16:27:53;7.80;99.90
28438;DHT22;15667;52.376;9.708;2023-02-15T16:30:26;8.60;99.90
28438;DHT22;15667;52.376;9.708;2023-02-15T16:33:09;7.80;99.90
28438;DHT22;15667;52.376;9.708;2023-02-15T16:35:37;7.70;99.90
28438;DHT22;15667;52.376;9.708;2023-02-15T16:38:15;7.90;99.90
28438;DHT22;15667;52.376;9.708;2023-02-15T16:40:58;7.60;99.90
28438;DHT22;15667;52.376;9.708;2023-02-15T16:43:28;7.60;99.90
28438;DHT22;15667;52.376;9.708;2023-02-15T16:46:03;8.00;99.90
28438;DHT22;15667;52.376;9.708;2023-02-15T16:48:31;7.50;99.90
28438;DHT22;15667;52.376;9.708;2023-02-15T16:51:02;7.50;99.90
28438;DHT22;15667;52.376;9.708;2023-02-15T16:53:28;7.40;99.90
28438;DHT22;15667;52.376;9.708;2023-02-15T16:55:57;8.20;99.90
28438;DHT22;15667;52.376;9.708;2023-02-15T16:58:44;7.40;99.90
28438;DHT22;15667;52.376;9.708;2023-02-15T17:01:13;7.30;99.90
28438;DHT22;15667;52.376;9.708;2023-02-15T17:03:40;7.30;99.90
28438;DHT22;15667;52.376;9.708;2023-02-15T17:06:22;7.30;99.90
28438;DHT22;15667;52.376;9.708;2023-02-15T17:08:49;7.30;99.90
28438;DHT22;15667;52.376;9.708;2023-02-15T17:16:31;7.20;99.90
28438;DHT22;15667;52.376;9.708;2023-02-15T17:19:00;7.20;99.90
28438;DHT22;15667;52.376;9.708;2023-02-15T17:21:33;7.10;99.90
28438;DHT22;15667;52.376;9.708;2023-02-15T17:24:05;7.10;99.90
28438;DHT22;15667;52.376;9.708;2023-02-15T17:26:34;7.00;99.90
28438;DHT22;15667;52.376;9.708;2023-02-15T17:29:26;7.00;99.90
28438;DHT22;15667;52.376;9.708;2023-02-15T17:31:55;7.00;99.90
28438;DHT22;15667;52.376;9.708;2023-02-15T17:35:05;6.90;99.90
28438;DHT22;15667;52.376;9.708;2023-02-15T17:40:18;6.90;99.90
28438;DHT22;15667;52.376;9.708;2023-02-15T17:42:44;6.80;99.90
28438;DHT22;15667;52.376;9.708;2023-02-15T17:45:10;6.80;99.90
28438;DHT22;15667;52.376;9.708;2023-02-15T17:47:39;6.80;99.90
28438;DHT22;15667;52.376;9.708;2023-02-15T17:50:06;7.90;99.90
28438;DHT22;15667;52.376;9.708;2023-02-15T17:52:32;6.70;99.90
28438;DHT22;15667;52.376;9.708;2023-02-15T17:55:12;7.50;99.90
28438;DHT22;15667;52.376;9.708;2023-02-15T17:57:58;6.70;99.90
28438;DHT22;15667;52.376;9.708;2023-02-15T18:00:24;7.50;99.90
28438;DHT22;15667;52.376;9.708;2023-02-15T18:03:14;7.20;99.90
28438;DHT22;15667;52.376;9.708;2023-02-15T18:05:58;7.40;99.90
28438;DHT22;15667;52.376;9.708;2023-02-15T18:08:45;7.70;99.90
28438;DHT22;15667;52.376;9.708;2023-02-15T18:11:30;6.60;99.90
28438;DHT22;15667;52.376;9.708;2023-02-15T18:14:06;6.50;99.90
28438;DHT22;15667;52.376;9.708;2023-02-15T18:16:37;6.50;99.90
28438;DHT22;15667;52.376;9.708;2023-02-15T18:19:04;6.50;99.90
28438;DHT22;15667;52.376;9.708;2023-02-15T18:21:33;6.50;99.90
28438;DHT22;15667;52.376;9.708;2023-02-15T18:23:58;6.50;99.90
28438;DHT22;15667;52.376;9.708;2023-02-15T18:26:27;6.50;99.90
28438;DHT22;15667;52.376;9.708;2023-02-15T18:28:54;6.40;99.90
28438;DHT22;15667;52.376;9.708;2023-02-15T18:31:20;7.20;99.90
28438;DHT22;15667;52.376;9.708;2023-02-15T18:33:53;6.40;99.90
28438;DHT22;15667;52.376;9.708;2023-02-15T18:36:26;6.40;99.90
28438;DHT22;15667;52.376;9.708;2023-02-15T18:38:53;6.30;99.90
28438;DHT22;15667;52.376;9.708;2023-02-15T18:41:22;6.30;99.90
28438;DHT22;15667;52.376;9.708;2023-02-15T18:43:51;6.30;99.90
28438;DHT22;15667;52.376;9.708;2023-02-15T18:46:19;6.30;99.90
28438;DHT22;15667;52.376;9.708;2023-02-15T18:48:51;6.80;99.90
28438;DHT22;15667;52.376;9.708;2023-02-15T18:51:21;6.20;99.90
28438;DHT22;15667;52.376;9.708;2023-02-15T18:53:50;7.10;99.90
28438;DHT22;15667;52.376;9.708;2023-02-15T18:56:18;6.20;99.90
28438;DHT22;15667;52.376;9.708;2023-02-15T18:58:44;6.10;99.90
28438;DHT22;15667;52.376;9.708;2023-02-15T19:01:21;6.10;99.90
28438;DHT22;15667;52.376;9.708;2023-02-15T19:03:49;7.00;99.90
28438;DHT22;15667;52.376;9.708;2023-02-15T19:06:17;5.40;99.90
28438;DHT22;15667;52.376;9.708;2023-02-15T19:08:55;6.10;99.90
28438;DHT22;15667;52.376;9.708;2023-02-15T19:11:40;5.60;99.90
28438;DHT22;15667;52.376;9.708;2023-02-15T19:14:30;7.10;99.90
28438;DHT22;15667;52.376;9.708;2023-02-15T19:17:16;5.60;99.90
28438;DHT22;15667;52.376;9.708;2023-02-15T19:19:43;5.80;99.90
28438;DHT22;15667;52.376;9.708;2023-02-15T19:22:44;7.00;99.90
28438;DHT22;15667;52.376;9.708;2023-02-15T19:25:16;5.40;99.90
28438;DHT22;15667;52.376;9.708;2023-02-15T19:27:49;6.10;99.90
28438;DHT22;15667;52.376;9.708;2023-02-15T19:31:13;6.00;99.90
28438;DHT22;15667;52.376;9.708;2023-02-15T19:33:41;6.10;99.90
28438;DHT22;15667;52.376;9.708;2023-02-15T19:36:14;6.60;99.90
28438;DHT22;15667;52.376;9.708;2023-02-15T19:38:44;6.70;99.90
28438;DHT22;15667;52.376;9.708;2023-02-15T19:41:26;7.00;99.90
28438;DHT22;15667;52.376;9.708;2023-02-15T19:43:53;6.00;99.90
28438;DHT22;15667;52.376;9.708;2023-02-15T19:46:23;6.90;99.90
28438;DHT22;15667;52.376;9.708;2023-02-15T19:48:51;6.30;99.90
28438;DHT22;15667;52.376;9.708;2023-02-15T19:51:18;7.00;99.90
28438;DHT22;15667;52.376;9.708;2023-02-15T19:53:50;6.80;99.90
28438;DHT22;15667;52.376;9.708;2023-02-15T19:56:21;5.90;99.90
28438;DHT22;15667;52.376;9.708;2023-02-15T19:58:49;6.40;99.90
28438;DHT22;15667;52.376;9.708;2023-02-15T20:01:19;6.10;99.90
28438;DHT22;15667;52.376;9.708;2023-02-15T20:03:46;6.00;99.90
28438;DHT22;15667;52.376;9.708;2023-02-15T20:06:16;6.90;99.90
28438;DHT22;15667;52.376;9.708;2023-02-15T20:08:52;6.50;99.90
28438;DHT22;15667;52.376;9.708;2023-02-15T20:11:31;6.00;99.90
28438;DHT22;15667;52.376;9.708;2023-02-15T20:14:09;6.50;99.90
28438;DHT22;15667;52.376;9.708;2023-02-15T20:16:36;5.10;99.90
28438;DHT22;15667;52.376;9.708;2023-02-15T20:19:02;6.50;99.90
28438;DHT22;15667;52.376;9.708;2023-02-15T20:21:59;5.90;99.90
28438;DHT22;15667;52.376;9.708;2023-02-15T20:24:27;5.80;99.90
28438;DHT22;15667;52.376;9.708;2023-02-15T20:27:17;5.80;99.90
28438;DHT22;15667;52.376;9.708;2023-02-15T20:29:45;4.80;99.90
28438;DHT22;15667;52.376;9.708;2023-02-15T20:32:14;5.90;99.90
28438;DHT22;15667;52.376;9.708;2023-02-15T20:34:40;5.80;99.90
28438;DHT22;15667;52.376;9.708;2023-02-15T20:37:22;6.00;99.90
28438;DHT22;15667;52.376;9.708;2023-02-15T20:39:55;5.30;99.90